createdAt,value
2022-11-05T00:01:19.087Z,22.22
2022-11-05T00:03:20.892Z,22.21
2022-11-05T00:05:22.694Z,22.21
2022-11-05T00:07:42.119Z,22.20
2022-11-05T00:09:43.833Z,22.17
2022-11-05T00:11:45.541Z,22.17
2022-11-05T00:13:47.244Z,22.17
2022-11-05T00:15:48.932Z,22.17
2022-11-05T00:17:50.686Z,22.16
2022-11-05T00:19:52.465Z,22.17
2022-11-05T00:21:54.281Z,22.17
2022-11-05T00:23:56.161Z,22.17
2022-11-05T00:25:59.030Z,22.17
2022-11-05T00:28:01.950Z,22.17
2022-11-05T00:30:04.138Z,22.17
2022-11-05T00:32:05.890Z,22.19
2022-11-05T00:34:07.655Z,22.19
2022-11-05T00:36:10.097Z,22.19
2022-11-05T00:38:11.805Z,22.20
2022-11-05T00:40:14.180Z,22.22
2022-11-05T00:42:15.856Z,22.21
2022-11-05T00:44:17.512Z,22.22
2022-11-05T00:46:19.198Z,22.22
2022-11-05T00:48:20.990Z,22.22
2022-11-05T00:50:22.717Z,22.21
2022-11-05T00:52:24.454Z,22.19
2022-11-05T00:54:26.191Z,22.20
2022-11-05T00:56:27.876Z,22.18
2022-11-05T00:58:29.626Z,22.16
2022-11-05T01:00:32.013Z,22.17
2022-11-05T01:02:33.827Z,22.18
2022-11-05T01:04:35.696Z,22.18
2022-11-05T01:06:37.504Z,22.18
2022-11-05T01:08:39.415Z,22.19
2022-11-05T01:10:44.123Z,22.19
2022-11-05T01:12:45.897Z,22.19
2022-11-05T01:14:47.688Z,22.17
2022-11-05T01:16:49.399Z,22.18
2022-11-05T01:18:51.045Z,22.17
2022-11-05T01:20:52.753Z,22.16
2022-11-05T01:22:54.461Z,22.15
2022-11-05T01:24:56.244Z,22.14
2022-11-05T01:26:58.004Z,22.15
2022-11-05T01:28:59.831Z,22.12
2022-11-05T01:31:01.644Z,22.12
2022-11-05T01:33:03.389Z,22.12
2022-11-05T01:35:07.017Z,22.12
2022-11-05T01:37:08.714Z,22.12
2022-11-05T01:39:10.450Z,22.11
2022-11-05T01:41:12.193Z,22.11
2022-11-05T01:43:18.055Z,22.10
2022-11-05T01:45:25.738Z,22.10
2022-11-05T01:47:45.926Z,22.09
2022-11-05T01:49:47.591Z,22.09
2022-11-05T01:51:49.311Z,22.09
2022-11-05T01:54:02.210Z,22.08
2022-11-05T01:56:11.833Z,22.05
2022-11-05T01:58:15.363Z,22.04
2022-11-05T02:00:17.220Z,22.05
2022-11-05T02:02:19.268Z,22.04
2022-11-05T02:04:28.087Z,22.05
2022-11-05T02:06:30.376Z,22.05
2022-11-05T02:08:39.263Z,22.05
2022-11-05T02:10:41.262Z,22.05
2022-11-05T02:12:44.799Z,22.03
2022-11-05T02:14:46.599Z,22.02
2022-11-05T02:16:53.435Z,22.02
2022-11-05T02:19:07.190Z,22.02
2022-11-05T02:21:27.298Z,22.02
2022-11-05T02:23:35.496Z,22.03
2022-11-05T02:26:15.122Z,22.03
2022-11-05T02:28:49.388Z,22.04
2022-11-05T02:31:09.587Z,22.04
2022-11-05T02:33:22.964Z,22.05
2022-11-05T02:35:30.359Z,22.05
2022-11-05T02:37:41.625Z,22.05
2022-11-05T02:40:20.386Z,22.06
2022-11-05T02:42:36.200Z,22.06
2022-11-05T02:44:56.690Z,22.05
2022-11-05T02:47:07.179Z,22.05
2022-11-05T02:49:26.709Z,22.05
2022-11-05T02:51:32.755Z,22.07
2022-11-05T02:53:43.259Z,22.06
2022-11-05T02:55:53.502Z,22.06
2022-11-05T02:57:55.166Z,22.05
2022-11-05T03:00:01.516Z,22.05
2022-11-05T03:02:03.475Z,22.06
2022-11-05T03:04:07.180Z,22.05
2022-11-05T03:06:23.729Z,22.05
2022-11-05T03:08:35.585Z,22.04
2022-11-05T03:10:42.231Z,22.06
2022-11-05T03:12:52.837Z,22.06
2022-11-05T03:15:22.064Z,22.06
2022-11-05T03:17:35.470Z,22.08
2022-11-05T03:19:48.467Z,22.09
2022-11-05T03:22:36.793Z,22.08
2022-11-05T03:24:40.993Z,22.07
2022-11-05T03:27:18.634Z,22.06
2022-11-05T03:29:23.226Z,22.05
2022-11-05T03:31:25.041Z,22.05
2022-11-05T03:33:28.933Z,22.05
2022-11-05T03:35:34.133Z,22.03
2022-11-05T03:37:37.116Z,22.03
2022-11-05T03:39:43.744Z,22.03
2022-11-05T03:41:45.937Z,22.04
2022-11-05T03:43:50.038Z,22.04
2022-11-05T03:45:55.703Z,22.05
2022-11-05T03:47:58.906Z,22.04
2022-11-05T03:50:27.629Z,22.04
2022-11-05T03:52:31.989Z,22.04
2022-11-05T03:54:33.688Z,22.04
2022-11-05T03:56:44.321Z,22.04
2022-11-05T03:58:46.164Z,22.03
2022-11-05T04:00:48.353Z,22.03
2022-11-05T04:02:50.207Z,22.03
2022-11-05T04:04:52.540Z,22.04
2022-11-05T04:06:54.241Z,22.04
2022-11-05T04:08:55.936Z,22.03
2022-11-05T04:10:57.582Z,22.02
2022-11-05T04:12:59.265Z,22.03
2022-11-05T04:15:01.109Z,22.01
2022-11-05T04:17:02.861Z,22.00
2022-11-05T04:19:04.681Z,22.00
2022-11-05T04:21:06.512Z,22.00
2022-11-05T04:23:08.382Z,22.00
2022-11-05T04:25:10.413Z,22.00
2022-11-05T04:27:12.144Z,22.01
2022-11-05T04:29:13.829Z,22.01
2022-11-05T04:31:15.683Z,22.02
2022-11-05T04:33:17.463Z,22.02
2022-11-05T04:35:19.145Z,22.04
2022-11-05T04:37:20.825Z,22.03
2022-11-05T04:39:22.606Z,22.04
2022-11-05T04:41:24.289Z,22.04
2022-11-05T04:43:25.940Z,22.05
2022-11-05T04:45:30.721Z,22.04
2022-11-05T04:47:32.387Z,22.03
2022-11-05T04:49:34.127Z,22.04
2022-11-05T04:51:35.853Z,22.04
2022-11-05T04:53:37.539Z,22.04
2022-11-05T04:55:39.313Z,22.04
2022-11-05T04:57:41.140Z,22.03
2022-11-05T04:59:42.783Z,22.03
2022-11-05T05:01:44.555Z,22.01
2022-11-05T05:03:50.105Z,22.02
2022-11-05T05:05:53.815Z,22.02
2022-11-05T05:07:55.671Z,22.03
2022-11-05T05:09:57.338Z,22.03
2022-11-05T05:11:58.996Z,22.03
2022-11-05T05:14:00.753Z,22.03
2022-11-05T05:16:06.832Z,22.03
2022-11-05T05:18:09.288Z,22.03
2022-11-05T05:20:10.986Z,22.04
2022-11-05T05:22:12.704Z,22.05
2022-11-05T05:24:16.762Z,22.05
2022-11-05T05:26:18.470Z,22.05
2022-11-05T05:28:20.166Z,22.04
2022-11-05T05:30:21.909Z,22.04
2022-11-05T05:32:23.833Z,22.03
2022-11-05T05:34:25.619Z,22.03
2022-11-05T05:36:27.366Z,22.03
2022-11-05T05:38:29.339Z,22.04
2022-11-05T05:40:31.077Z,22.04
2022-11-05T05:42:32.778Z,22.06
2022-11-05T05:44:34.506Z,22.06
2022-11-05T05:46:36.174Z,22.06
2022-11-05T05:48:37.862Z,22.05
2022-11-05T05:50:39.601Z,22.06
2022-11-05T05:52:41.740Z,22.04
2022-11-05T05:54:43.543Z,22.04
2022-11-05T05:56:45.512Z,22.03
2022-11-05T05:58:47.430Z,22.02
2022-11-05T06:00:49.622Z,22.02
2022-11-05T06:02:51.463Z,22.03
2022-11-05T06:04:53.209Z,22.08
2022-11-05T06:06:54.858Z,22.11
2022-11-05T06:08:56.650Z,22.14
2022-11-05T06:10:58.976Z,22.19
2022-11-05T06:13:00.777Z,22.23
2022-11-05T06:15:02.530Z,22.26
2022-11-05T06:17:04.217Z,22.30
2022-11-05T06:19:06.686Z,22.34
2022-11-05T06:21:10.098Z,22.37
2022-11-05T06:25:13.857Z,22.44
2022-11-05T06:27:15.531Z,22.46
2022-11-05T06:29:17.208Z,22.49
2022-11-05T06:31:18.943Z,22.50
2022-11-05T06:33:20.828Z,22.53
2022-11-05T06:35:22.541Z,22.53
2022-11-05T06:37:24.246Z,22.56
2022-11-05T06:39:25.909Z,22.57
2022-11-05T06:41:27.647Z,22.59
2022-11-05T06:43:29.430Z,22.61
2022-11-05T06:45:31.333Z,22.63
2022-11-05T06:47:33.052Z,22.64
2022-11-05T06:49:34.848Z,22.64
2022-11-05T06:51:36.495Z,22.65
2022-11-05T06:53:38.174Z,22.66
2022-11-05T06:55:40.055Z,22.66
2022-11-05T06:57:41.761Z,22.67
2022-11-05T06:59:43.494Z,22.68
2022-11-05T07:01:45.356Z,22.69
2022-11-05T07:03:47.116Z,22.70
2022-11-05T07:05:48.844Z,22.70
2022-11-05T07:07:51.888Z,22.71
2022-11-05T07:09:53.576Z,22.71
2022-11-05T07:11:55.368Z,22.74
2022-11-05T07:13:57.124Z,22.76
2022-11-05T07:15:58.793Z,22.80
2022-11-05T07:18:01.714Z,22.85
2022-11-05T07:20:04.653Z,22.90
2022-11-05T07:22:07.886Z,22.95
2022-11-05T07:24:09.586Z,23.00
2022-11-05T07:26:11.192Z,23.08
2022-11-05T07:28:12.965Z,23.16
2022-11-05T07:30:14.750Z,23.25
2022-11-05T07:32:16.414Z,23.33
2022-11-05T07:34:18.239Z,23.40
2022-11-05T07:36:20.023Z,23.49
2022-11-05T07:38:21.651Z,23.56
2022-11-05T07:40:25.766Z,23.64
2022-11-05T07:42:27.453Z,23.72
2022-11-05T07:44:29.129Z,23.77
2022-11-05T07:46:31.062Z,23.83
2022-11-05T07:48:32.720Z,23.89
2022-11-05T07:50:35.831Z,23.93
2022-11-05T07:52:37.479Z,23.96
2022-11-05T07:54:39.238Z,24.00
2022-11-05T07:56:40.953Z,24.03
2022-11-05T07:58:42.781Z,24.08
2022-11-05T08:00:44.718Z,24.10
2022-11-05T08:03:10.317Z,24.12
2022-11-05T08:05:12.314Z,24.16
2022-11-05T08:07:14.068Z,24.16
2022-11-05T08:09:15.818Z,24.18
2022-11-05T08:11:17.552Z,24.23
2022-11-05T08:13:19.288Z,24.27
2022-11-05T08:15:21.203Z,24.32
2022-11-05T08:17:22.919Z,24.36
2022-11-05T08:19:27.290Z,24.42
2022-11-05T08:21:29.078Z,24.46
2022-11-05T08:23:31.168Z,24.50
2022-11-05T08:25:32.953Z,24.54
2022-11-05T08:27:34.681Z,24.58
2022-11-05T08:29:36.512Z,24.61
2022-11-05T08:31:41.442Z,24.63
2022-11-05T08:33:43.080Z,24.65
2022-11-05T08:35:44.876Z,24.66
2022-11-05T08:37:46.713Z,24.71
2022-11-05T08:39:48.493Z,24.68
2022-11-05T08:41:53.269Z,24.64
2022-11-05T08:43:56.066Z,24.60
2022-11-05T08:46:00.484Z,24.56
2022-11-05T08:48:15.507Z,24.53
2022-11-05T08:50:17.586Z,24.49
2022-11-05T08:52:19.274Z,24.43
2022-11-05T08:54:20.998Z,24.36
2022-11-05T08:56:22.814Z,24.32
2022-11-05T08:58:24.699Z,24.28
2022-11-05T09:00:36.481Z,24.22
2022-11-05T09:02:38.176Z,24.18
2022-11-05T09:04:39.917Z,24.16
2022-11-05T09:06:41.721Z,24.12
2022-11-05T09:08:43.489Z,24.09
2022-11-05T09:10:46.586Z,24.06
2022-11-05T09:12:48.267Z,24.02
2022-11-05T09:14:49.941Z,23.99
2022-11-05T09:16:51.825Z,23.99
2022-11-05T09:18:53.544Z,23.99
2022-11-05T09:20:55.463Z,24.03
2022-11-05T09:22:57.184Z,24.08
2022-11-05T09:24:58.925Z,24.15
2022-11-05T09:27:00.608Z,24.20
2022-11-05T09:29:02.322Z,24.26
2022-11-05T09:31:08.083Z,24.31
2022-11-05T09:33:10.635Z,24.36
2022-11-05T09:35:12.526Z,24.44
2022-11-05T09:37:14.165Z,24.49
2022-11-05T09:39:16.111Z,24.53
2022-11-05T09:41:38.929Z,24.56
2022-11-05T09:43:44.952Z,24.54
2022-11-05T09:45:48.698Z,24.50
2022-11-05T09:48:01.214Z,24.47
2022-11-05T09:50:07.460Z,24.43
2022-11-05T09:52:22.672Z,24.38
2022-11-05T09:54:26.402Z,24.34
2022-11-05T09:56:32.221Z,24.32
2022-11-05T09:58:42.404Z,24.31
2022-11-05T10:00:44.187Z,24.33
2022-11-05T10:02:54.626Z,24.38
2022-11-05T10:04:58.155Z,24.44
2022-11-05T10:07:02.188Z,24.47
2022-11-05T10:09:11.690Z,24.52
2022-11-05T10:11:28.467Z,24.57
2022-11-05T10:13:48.207Z,24.59
2022-11-05T10:16:01.349Z,24.63
2022-11-05T10:18:16.846Z,24.64
2022-11-05T10:20:30.606Z,24.66
2022-11-05T10:22:32.642Z,24.68
2022-11-05T10:24:34.350Z,24.72
2022-11-05T10:26:36.026Z,24.73
2022-11-05T10:28:37.891Z,24.68
2022-11-05T10:30:39.645Z,24.62
2022-11-05T10:32:41.543Z,24.61
2022-11-05T10:34:43.233Z,24.62
2022-11-05T10:36:44.906Z,24.63
2022-11-05T10:38:46.560Z,24.65
2022-11-05T10:41:34.529Z,24.72
2022-11-05T10:43:50.320Z,24.75
2022-11-05T10:46:29.520Z,24.78
2022-11-05T10:48:44.151Z,24.78
2022-11-05T10:50:46.071Z,24.79
2022-11-05T10:53:28.616Z,24.76
2022-11-05T10:55:36.213Z,24.76
2022-11-05T10:57:39.530Z,24.74
2022-11-05T10:59:41.223Z,24.75
2022-11-05T11:01:43.017Z,24.76
2022-11-05T11:03:49.320Z,24.74
2022-11-05T11:05:50.970Z,24.74
2022-11-05T11:08:13.936Z,24.72
2022-11-05T11:10:22.082Z,24.74
2022-11-05T11:12:24.439Z,24.75
2022-11-05T11:14:26.273Z,24.77
2022-11-05T11:16:29.449Z,24.78
2022-11-05T11:18:40.630Z,24.80
2022-11-05T11:20:44.641Z,24.83
2022-11-05T11:23:02.560Z,24.86
2022-11-05T11:25:19.144Z,24.88
2022-11-05T11:27:26.288Z,24.91
2022-11-05T11:29:28.398Z,24.92
2022-11-05T11:31:31.488Z,24.93
2022-11-05T11:33:33.188Z,24.92
2022-11-05T11:35:36.566Z,24.93
2022-11-05T11:37:39.087Z,24.94
2022-11-05T11:39:40.945Z,24.96
2022-11-05T11:41:43.181Z,24.95
2022-11-05T11:43:44.985Z,24.95
2022-11-05T11:45:48.314Z,24.94
2022-11-05T11:47:50.038Z,24.95
2022-11-05T11:49:53.602Z,24.96
2022-11-05T11:51:55.540Z,24.94
2022-11-05T11:53:58.457Z,24.94
2022-11-05T11:56:12.481Z,24.94
2022-11-05T11:58:14.213Z,24.95
2022-11-05T12:00:16.613Z,24.96
2022-11-05T12:03:02.583Z,24.96
2022-11-05T12:05:22.965Z,24.99
2022-11-05T12:07:27.943Z,25.01
2022-11-05T12:09:38.616Z,25.00
2022-11-05T12:11:47.184Z,25.00
2022-11-05T12:14:11.160Z,25.01
2022-11-05T12:16:38.631Z,25.07
2022-11-05T12:18:48.768Z,25.09
2022-11-05T12:20:55.374Z,25.13
2022-11-05T12:23:37.095Z,25.12
2022-11-05T12:25:53.445Z,25.13
2022-11-05T12:28:25.580Z,25.18
2022-11-05T12:30:27.319Z,25.18
2022-11-05T12:32:44.197Z,25.19
2022-11-05T12:34:58.627Z,25.20
2022-11-05T12:37:22.012Z,25.19
2022-11-05T12:39:41.975Z,25.19
2022-11-05T12:41:56.373Z,25.22
2022-11-05T12:44:10.189Z,25.23
2022-11-05T12:46:23.541Z,25.24
2022-11-05T12:48:39.727Z,25.26
2022-11-05T12:50:45.092Z,25.27
2022-11-05T12:53:03.731Z,25.28
2022-11-05T12:55:18.427Z,25.25
2022-11-05T12:57:20.283Z,25.22
2022-11-05T12:59:26.717Z,25.21
2022-11-05T13:01:43.843Z,25.22
2022-11-05T13:03:56.210Z,25.23
2022-11-05T13:06:10.403Z,25.24
2022-11-05T13:08:27.739Z,25.24
2022-11-05T13:10:37.269Z,25.25
2022-11-05T13:12:39.985Z,25.26
2022-11-05T13:14:45.530Z,25.28
2022-11-05T13:16:52.815Z,25.31
2022-11-05T13:19:07.131Z,25.30
2022-11-05T13:21:09.077Z,25.34
2022-11-05T13:23:14.232Z,25.33
2022-11-05T13:25:21.198Z,25.36
2022-11-05T13:27:41.427Z,25.38
2022-11-05T13:29:57.131Z,25.37
2022-11-05T13:32:23.902Z,25.37
2022-11-05T13:34:26.013Z,25.37
2022-11-05T13:36:55.415Z,25.38
2022-11-05T13:39:07.234Z,25.36
2022-11-05T13:41:14.838Z,25.34
2022-11-05T13:43:25.184Z,25.31
2022-11-05T13:46:01.417Z,25.28
2022-11-05T13:48:47.487Z,25.28
2022-11-05T13:51:12.220Z,25.33
2022-11-05T13:53:50.973Z,25.28
2022-11-05T13:56:17.374Z,25.30
2022-11-05T13:58:43.414Z,25.31
2022-11-05T14:01:07.580Z,25.28
2022-11-05T14:03:19.564Z,25.29
2022-11-05T14:05:33.289Z,25.28
2022-11-05T14:07:37.057Z,25.29
2022-11-05T14:09:38.879Z,25.30
2022-11-05T14:11:42.045Z,25.29
2022-11-05T14:13:44.247Z,25.31
2022-11-05T14:16:08.895Z,25.29
2022-11-05T14:18:49.293Z,25.34
2022-11-05T14:21:04.575Z,25.33
2022-11-05T14:23:21.543Z,25.29
2022-11-05T14:25:23.300Z,25.26
2022-11-05T14:27:37.226Z,25.22
2022-11-05T14:29:48.946Z,25.17
2022-11-05T14:32:08.188Z,25.12
2022-11-05T14:34:10.749Z,25.09
2022-11-05T14:36:21.194Z,25.05
2022-11-05T14:38:25.148Z,25.00
2022-11-05T14:40:39.726Z,24.95
2022-11-05T14:42:42.539Z,24.88
2022-11-05T14:45:08.404Z,24.84
2022-11-05T14:47:19.970Z,24.83
2022-11-05T14:49:48.989Z,24.83
2022-11-05T14:51:52.572Z,24.84
2022-11-05T14:54:16.122Z,24.85
2022-11-05T14:56:18.446Z,24.85
2022-11-05T14:58:31.536Z,24.86
2022-11-05T15:00:33.174Z,24.89
2022-11-05T15:02:36.820Z,24.93
2022-11-05T15:04:38.777Z,24.96
2022-11-05T15:06:40.879Z,24.98
2022-11-05T15:08:48.615Z,25.01
2022-11-05T15:10:50.400Z,25.01
2022-11-05T15:12:54.206Z,25.01
2022-11-05T15:15:03.519Z,25.05
2022-11-05T15:17:25.555Z,25.07
2022-11-05T15:19:34.756Z,25.08
2022-11-05T15:21:36.524Z,25.07
2022-11-05T15:23:53.012Z,25.09
2022-11-05T15:26:14.842Z,25.14
2022-11-05T15:28:38.403Z,25.18
2022-11-05T15:30:49.846Z,25.22
2022-11-05T15:32:51.876Z,25.25
2022-11-05T15:34:54.665Z,25.28
2022-11-05T15:37:16.928Z,25.31
2022-11-05T15:39:41.178Z,25.33
2022-11-05T15:41:43.148Z,25.37
2022-11-05T15:43:48.037Z,25.39
2022-11-05T15:46:02.565Z,25.41
2022-11-05T15:48:13.689Z,25.41
2022-11-05T15:50:15.616Z,25.42
2022-11-05T15:52:19.665Z,25.41
2022-11-05T15:54:30.176Z,25.42
2022-11-05T15:56:32.359Z,25.42
2022-11-05T15:58:37.523Z,25.46
2022-11-05T16:00:40.008Z,25.45
2022-11-05T16:02:41.942Z,25.40
2022-11-05T16:04:48.468Z,25.39
2022-11-05T16:06:52.757Z,25.38
2022-11-05T16:08:54.436Z,25.38
2022-11-05T16:10:58.021Z,25.36
2022-11-05T16:13:22.548Z,25.35
2022-11-05T16:15:26.022Z,25.33
2022-11-05T16:17:30.257Z,25.31
2022-11-05T16:19:40.587Z,25.34
2022-11-05T16:21:54.895Z,25.32
2022-11-05T16:23:59.994Z,25.31
2022-11-05T16:26:01.768Z,25.33
2022-11-05T16:28:04.033Z,25.33
2022-11-05T16:30:06.560Z,25.35
2022-11-05T16:32:29.759Z,25.34
2022-11-05T16:34:40.219Z,25.36
2022-11-05T16:36:41.857Z,25.36
2022-11-05T16:38:43.800Z,25.37
2022-11-05T16:40:45.700Z,25.39
2022-11-05T16:42:47.558Z,25.39
2022-11-05T16:44:55.092Z,25.36
2022-11-05T16:46:56.742Z,25.37
2022-11-05T16:48:58.405Z,25.37
2022-11-05T16:51:00.149Z,25.36
2022-11-05T16:53:01.892Z,25.38
2022-11-05T16:55:03.807Z,25.40
2022-11-05T16:57:08.019Z,25.39
2022-11-05T16:59:11.233Z,25.42
2022-11-05T17:01:18.302Z,25.42
2022-11-05T17:03:20.275Z,25.43
2022-11-05T17:05:27.648Z,25.45
2022-11-05T17:07:29.335Z,25.47
2022-11-05T17:09:31.077Z,25.47
2022-11-05T17:11:32.833Z,25.48
2022-11-05T17:13:34.556Z,25.50
2022-11-05T17:15:36.284Z,25.52
2022-11-05T17:17:38.010Z,25.54
2022-11-05T17:19:39.819Z,25.57
2022-11-05T17:21:41.997Z,25.61
2022-11-05T17:23:44.453Z,25.61
2022-11-05T17:25:48.565Z,25.59
2022-11-05T17:27:50.330Z,25.57
2022-11-05T17:29:52.095Z,25.53
2022-11-05T17:31:53.869Z,25.48
2022-11-05T17:33:57.686Z,25.46
2022-11-05T17:35:59.542Z,25.43
2022-11-05T17:38:01.342Z,25.40
2022-11-05T17:40:04.466Z,25.34
2022-11-05T17:42:06.227Z,25.27
2022-11-05T17:44:09.969Z,25.25
2022-11-05T17:46:13.353Z,25.24
2022-11-05T17:48:15.482Z,25.25
2022-11-05T17:50:17.291Z,25.29
2022-11-05T17:52:19.077Z,25.31
2022-11-05T17:54:21.106Z,25.34
2022-11-05T17:56:33.446Z,25.39
2022-11-05T17:58:36.957Z,25.38
2022-11-05T18:00:38.809Z,25.44
2022-11-05T18:02:40.565Z,25.46
2022-11-05T18:04:42.251Z,25.47
2022-11-05T18:06:44.063Z,25.47
2022-11-05T18:08:45.997Z,25.46
2022-11-05T18:10:47.720Z,25.47
2022-11-05T18:12:49.442Z,25.47
2022-11-05T18:14:51.081Z,25.49
2022-11-05T18:16:52.729Z,25.49
2022-11-05T18:18:54.550Z,25.51
2022-11-05T18:20:59.525Z,25.51
2022-11-05T18:23:01.364Z,25.54
2022-11-05T18:25:03.015Z,25.53
2022-11-05T18:27:04.714Z,25.54
2022-11-05T18:29:06.395Z,25.54
2022-11-05T18:31:18.029Z,25.55
2022-11-05T18:33:20.320Z,25.54
2022-11-05T18:35:21.985Z,25.56
2022-11-05T18:37:23.638Z,25.56
2022-11-05T18:39:25.503Z,25.59
2022-11-05T18:41:27.594Z,25.60
2022-11-05T18:43:29.258Z,25.59
2022-11-05T18:45:30.896Z,25.62
2022-11-05T18:47:33.167Z,25.60
2022-11-05T18:49:34.962Z,25.60
2022-11-05T18:51:36.729Z,25.59
2022-11-05T18:53:38.819Z,25.62
2022-11-05T18:55:40.617Z,25.64
2022-11-05T18:57:42.346Z,25.63
2022-11-05T18:59:44.010Z,25.63
2022-11-05T19:01:46.734Z,25.62
2022-11-05T19:03:49.084Z,25.63
2022-11-05T19:05:50.847Z,25.63
2022-11-05T19:07:52.452Z,25.70
2022-11-05T19:09:54.145Z,25.69
2022-11-05T19:11:55.822Z,25.63
2022-11-05T19:13:57.617Z,25.55
2022-11-05T19:15:59.320Z,25.51
2022-11-05T19:18:01.040Z,25.45
2022-11-05T19:20:03.293Z,25.41
2022-11-05T19:22:05.056Z,25.38
2022-11-05T19:24:07.691Z,25.36
2022-11-05T19:26:11.817Z,25.33
2022-11-05T19:28:13.822Z,25.30
2022-11-05T19:30:15.913Z,25.26
2022-11-05T19:32:17.590Z,25.23
2022-11-05T19:34:19.339Z,25.21
2022-11-05T19:36:21.951Z,25.19
2022-11-05T19:38:23.881Z,25.16
2022-11-05T19:40:25.500Z,25.13
2022-11-05T19:42:27.215Z,25.13
2022-11-05T19:44:29.438Z,25.13
2022-11-05T19:46:31.237Z,25.11
2022-11-05T19:48:33.205Z,25.14
2022-11-05T19:50:35.086Z,25.18
2022-11-05T19:52:36.731Z,25.24
2022-11-05T19:54:39.693Z,25.33
2022-11-05T19:56:43.186Z,25.42
2022-11-05T19:58:45.123Z,25.49
2022-11-05T20:00:46.867Z,25.56
2022-11-05T20:02:48.799Z,25.63
2022-11-05T20:04:50.670Z,25.69
2022-11-05T20:06:52.321Z,25.74
2022-11-05T20:09:20.143Z,25.81
2022-11-05T20:11:16.187Z,25.86
2022-11-05T20:13:19.933Z,25.92
2022-11-05T20:15:21.860Z,25.97
2022-11-05T20:17:23.609Z,25.99
2022-11-05T20:19:25.276Z,26.03
2022-11-05T20:21:26.926Z,26.05
2022-11-05T20:23:28.553Z,26.04
2022-11-05T20:25:30.257Z,26.10
2022-11-05T20:27:31.942Z,26.06
2022-11-05T20:29:35.590Z,26.10
2022-11-05T20:31:37.619Z,26.10
2022-11-05T20:33:39.763Z,26.09
2022-11-05T20:35:41.585Z,26.06
2022-11-05T20:37:43.217Z,26.07
2022-11-05T20:39:44.844Z,26.04
2022-11-05T20:41:46.461Z,26.05
2022-11-05T20:43:48.144Z,26.05
2022-11-05T20:45:49.760Z,26.06
2022-11-05T20:47:51.353Z,26.01
2022-11-05T20:49:53.019Z,26.03
2022-11-05T20:51:54.809Z,26.01
2022-11-05T20:53:57.698Z,26.05
2022-11-05T20:56:02.405Z,26.02
2022-11-05T20:58:06.883Z,26.05
2022-11-05T21:00:09.102Z,26.07
2022-11-05T21:02:11.715Z,26.04
2022-11-05T21:04:13.584Z,25.98
2022-11-05T21:06:15.284Z,25.92
2022-11-05T21:08:16.977Z,25.88
2022-11-05T21:10:18.736Z,25.82
2022-11-05T21:12:20.485Z,25.77
2022-11-05T21:14:22.148Z,25.71
2022-11-05T21:16:23.823Z,25.66
2022-11-05T21:18:27.399Z,25.61
2022-11-05T21:20:29.173Z,25.57
2022-11-05T21:22:30.882Z,25.51
2022-11-05T21:24:33.381Z,25.46
2022-11-05T21:26:35.179Z,25.43
2022-11-05T21:28:37.742Z,25.38
2022-11-05T21:30:40.921Z,25.33
2022-11-05T21:32:42.688Z,25.28
2022-11-05T21:34:44.424Z,25.25
2022-11-05T21:36:46.139Z,25.22
2022-11-05T21:38:47.929Z,25.18
2022-11-05T21:40:49.579Z,25.13
2022-11-05T21:42:51.290Z,25.10
2022-11-05T21:44:57.714Z,25.06
2022-11-05T21:47:01.888Z,25.02
2022-11-05T21:49:04.129Z,24.99
2022-11-05T21:51:05.942Z,24.96
2022-11-05T21:53:13.139Z,24.92
2022-11-05T21:55:14.843Z,24.88
2022-11-05T21:57:17.020Z,24.84
2022-11-05T21:59:21.632Z,24.83
2022-11-05T22:01:23.523Z,24.80
2022-11-05T22:03:25.491Z,24.77
2022-11-05T22:05:27.392Z,24.75
2022-11-05T22:07:31.542Z,24.73
2022-11-05T22:09:33.280Z,24.70
2022-11-05T22:11:36.289Z,24.67
2022-11-05T22:13:37.982Z,24.65
2022-11-05T22:15:39.693Z,24.62
2022-11-05T22:17:46.240Z,24.61
2022-11-05T22:19:48.806Z,24.60
2022-11-05T22:21:50.602Z,24.58
2022-11-05T22:23:52.848Z,24.57
2022-11-05T22:26:01.086Z,24.56
2022-11-05T22:28:02.873Z,24.55
2022-11-05T22:30:05.068Z,24.55
2022-11-05T22:32:06.728Z,24.54
2022-11-05T22:34:09.147Z,24.53
2022-11-05T22:36:11.070Z,24.51
2022-11-05T22:38:12.959Z,24.49
2022-11-05T22:40:14.843Z,24.47
2022-11-05T22:42:16.589Z,24.46
2022-11-05T22:44:18.347Z,24.45
2022-11-05T22:46:21.869Z,24.42
2022-11-05T22:48:23.536Z,24.42
2022-11-05T22:50:25.172Z,24.39
2022-11-05T22:52:26.899Z,24.38
2022-11-05T22:54:28.604Z,24.36
2022-11-05T22:56:33.232Z,24.35
2022-11-05T22:58:34.939Z,24.34
2022-11-05T23:00:37.315Z,24.33
2022-11-05T23:02:39.227Z,24.32
2022-11-05T23:04:41.222Z,24.33
2022-11-05T23:06:42.947Z,24.32
2022-11-05T23:08:44.631Z,24.31
2022-11-05T23:10:46.295Z,24.31
2022-11-05T23:12:47.982Z,24.31
2022-11-05T23:14:49.851Z,24.32
2022-11-05T23:16:51.483Z,24.30
2022-11-05T23:18:53.168Z,24.30
2022-11-05T23:20:54.841Z,24.29
2022-11-05T23:22:57.400Z,24.29
2022-11-05T23:24:59.146Z,24.28
2022-11-05T23:27:00.831Z,24.29
2022-11-05T23:29:02.608Z,24.29
2022-11-05T23:31:04.239Z,24.29
2022-11-05T23:33:06.000Z,24.29
2022-11-05T23:35:08.117Z,24.29
2022-11-05T23:37:09.827Z,24.29
2022-11-05T23:39:11.422Z,24.29
2022-11-05T23:41:13.167Z,24.29
2022-11-05T23:43:15.020Z,24.29
2022-11-05T23:45:16.875Z,24.28
2022-11-05T23:47:18.656Z,24.28
2022-11-05T23:49:20.255Z,24.28
2022-11-05T23:51:21.899Z,24.28
2022-11-05T23:53:23.734Z,24.27
2022-11-05T23:55:25.527Z,24.27
2022-11-05T23:57:27.166Z,24.27
2022-11-05T23:59:28.827Z,24.28
